Time;durP1;ratioP1;P1;durP2;ratioP2;P2;SDS_P1;SDS_P2;PMS_P1;PMS_P2;Temp;Humidity;BMP_temperature;BMP_pressure;BME280_temperature;BME280_humidity;BME280_pressure;Samples;Min_cycle;Max_cycle;Signal;HPM_P1;HPM_P2
2022/10/22 00:00:15;;;;;;;2.22;1.02;;;15.10;99.90;;;;;;5033944;28;20033;-69
2022/10/22 00:02:42;;;;;;;2.38;1.67;;;15.10;99.90;;;;;;5032297;28;20042;-69
2022/10/22 00:05:09;;;;;;;4.50;0.88;;;15.10;99.90;;;;;;5033781;28;20030;-69
2022/10/22 00:07:35;;;;;;;5.47;1.40;;;15.10;99.90;;;;;;5033437;28;20393;-69
2022/10/22 00:10:02;;;;;;;4.38;1.27;;;15.10;99.90;;;;;;5033649;28;20032;-69
2022/10/22 00:12:27;;;;;;;1.88;0.88;;;15.20;99.90;;;;;;5033129;28;20033;-69
2022/10/22 00:14:53;;;;;;;4.80;0.88;;;15.20;99.90;;;;;;5033626;28;20029;-69
2022/10/22 00:17:19;;;;;;;1.75;1.02;;;15.30;99.90;;;;;;5033517;28;20038;-68
2022/10/22 00:19:45;;;;;;;2.47;0.95;;;15.40;99.90;;;;;;5033544;28;20469;-69
2022/10/22 00:22:11;;;;;;;3.80;1.10;;;15.50;99.90;;;;;;5033089;28;20040;-69
2022/10/22 00:24:38;;;;;;;1.77;0.63;;;15.50;99.90;;;;;;5033322;28;20029;-69
2022/10/22 00:27:06;;;;;;;4.50;1.15;;;15.60;99.90;;;;;;5031741;28;20032;-69
2022/10/22 00:29:33;;;;;;;1.08;0.43;;;15.50;99.90;;;;;;5033336;28;20033;-69
2022/10/22 00:31:58;;;;;;;1.38;0.40;;;15.60;99.90;;;;;;5033025;28;20036;-69
2022/10/22 00:34:24;;;;;;;2.20;0.85;;;15.60;99.90;;;;;;5032974;28;20025;-69
2022/10/22 00:36:51;;;;;;;2.42;0.40;;;15.70;99.90;;;;;;5033205;28;20029;-69
2022/10/22 00:39:20;;;;;;;4.07;0.77;;;15.80;99.90;;;;;;5031969;28;20493;-69
2022/10/22 00:41:48;;;;;;;2.67;0.65;;;15.80;99.90;;;;;;5031834;28;20436;-69
2022/10/22 00:45:07;;;;;;;6.43;0.70;;;15.80;99.90;;;;;;5031687;28;20451;-68
2022/10/22 00:48:04;;;;;;;1.48;0.80;;;15.80;99.90;;;;;;5032827;28;20730;-68
2022/10/22 00:50:44;;;;;;;2.90;0.38;;;15.80;99.90;;;;;;5046549;28;20052;-69
2022/10/22 00:53:19;;;;;;;0.98;0.30;;;15.70;99.90;;;;;;5031362;28;20390;-68
2022/10/22 00:55:50;;;;;;;0.32;0.30;;;15.80;99.90;;;;;;5016047;28;20108;-68
2022/10/22 00:58:17;;;;;;;0.47;0.22;;;15.70;99.90;;;;;;5032890;28;20025;-68
2022/10/22 01:00:43;;;;;;;1.55;0.60;;;15.70;99.90;;;;;;5031432;28;20517;-68
2022/10/22 01:03:09;;;;;;;0.40;0.28;;;15.70;99.90;;;;;;5032123;28;20104;-68
2022/10/22 01:05:50;;;;;;;0.80;0.63;;;15.70;99.90;;;;;;5024198;28;20037;-68
2022/10/22 01:08:44;;;;;;;0.75;0.40;;;15.70;99.90;;;;;;5032159;28;20063;-69
2022/10/22 01:11:26;;;;;;;0.60;0.28;;;15.70;99.90;;;;;;5045231;28;20025;-68
2022/10/22 01:14:14;;;;;;;;;;;15.60;99.90;;;;;;5015485;28;20034;-68
2022/10/22 01:16:54;;;;;;;1.83;0.70;;;15.60;99.90;;;;;;5015776;28;19947;-68
2022/10/22 01:19:41;;;;;;;0.30;0.30;;;15.60;99.90;;;;;;5011417;28;20533;-68
2022/10/22 01:22:31;;;;;;;1.75;0.30;;;15.60;99.90;;;;;;5012331;28;20042;-69
2022/10/22 01:25:24;;;;;;;3.58;0.80;;;15.50;99.90;;;;;;5026486;28;20033;-68
2022/10/22 01:28:25;;;;;;;5.57;0.68;;;15.50;99.90;;;;;;5030862;28;20029;-69
2022/10/22 01:30:55;;;;;;;0.17;0.17;;;15.50;99.90;;;;;;5001544;28;20407;-69
2022/10/22 01:33:23;;;;;;;0.30;0.25;;;15.50;99.90;;;;;;5031183;28;20094;-70
2022/10/22 01:35:51;;;;;;;0.25;0.13;;;15.40;99.90;;;;;;5030590;28;20021;-70
2022/10/22 01:38:22;;;;;;;0.95;0.40;;;15.40;99.90;;;;;;5030481;28;20033;-70
2022/10/22 01:40:49;;;;;;;0.38;0.10;;;15.40;99.90;;;;;;5027084;28;20038;-69
2022/10/22 01:43:15;;;;;;;1.02;0.30;;;15.40;99.90;;;;;;5010734;28;20038;-68
2022/10/22 01:45:50;;;;;;;0.75;0.35;;;15.30;99.90;;;;;;5012510;28;20393;-69
2022/10/22 01:48:49;;;;;;;0.93;0.35;;;15.30;99.90;;;;;;5010538;28;20076;-69
2022/10/22 01:51:34;;;;;;;0.85;0.50;;;15.30;99.90;;;;;;5012114;28;20068;-68
2022/10/22 01:54:37;;;;;;;0.47;0.40;;;15.30;99.90;;;;;;5011603;28;20037;-68
2022/10/22 01:57:50;;;;;;;1.90;0.50;;;15.20;99.90;;;;;;5002533;28;20441;-68
2022/10/22 02:00:17;;;;;;;1.70;1.00;;;15.20;99.90;;;;;;5010787;28;20033;-68
2022/10/22 02:03:01;;;;;;;0.85;0.52;;;15.10;99.90;;;;;;5010061;28;20042;-68
2022/10/22 02:05:42;;;;;;;0.45;0.20;;;15.10;99.90;;;;;;5011843;28;20038;-68
2022/10/22 02:08:30;;;;;;;0.22;0.20;;;15.10;99.90;;;;;;5010338;28;20046;-68
2022/10/22 02:10:57;;;;;;;0.82;0.50;;;15.00;99.90;;;;;;5010634;28;20034;-68
2022/10/22 02:13:40;;;;;;;0.22;0.20;;;15.00;99.90;;;;;;5010014;28;20018;-68
2022/10/22 02:16:08;;;;;;;3.10;0.55;;;15.00;99.90;;;;;;5010422;28;20057;-68
2022/10/22 02:18:38;;;;;;;1.88;0.50;;;15.00;99.90;;;;;;4994004;28;20037;-68
2022/10/22 02:21:06;;;;;;;0.83;0.40;;;15.00;99.90;;;;;;5010629;28;20026;-68
2022/10/22 02:23:32;;;;;;;1.30;0.55;;;15.10;99.90;;;;;;5010862;28;20376;-68
2022/10/22 02:26:15;;;;;;;0.47;0.28;;;15.10;99.90;;;;;;5010133;28;20033;-67
2022/10/22 02:28:54;;;;;;;0.52;0.22;;;15.00;99.90;;;;;;5010101;28;20137;-68
2022/10/22 02:31:29;;;;;;;0.17;0.17;;;15.00;99.90;;;;;;5010501;28;20033;-68
2022/10/22 02:33:58;;;;;;;1.05;0.30;;;14.90;99.90;;;;;;5009404;28;20034;-68
2022/10/22 02:36:24;;;;;;;1.25;0.43;;;14.90;99.90;;;;;;5011276;28;20026;-68
2022/10/22 02:38:52;;;;;;;2.58;0.50;;;14.80;99.90;;;;;;5009893;28;20056;-70
2022/10/22 02:41:19;;;;;;;0.73;0.50;;;14.80;99.90;;;;;;5009845;28;20068;-68
2022/10/22 02:43:53;;;;;;;1.38;0.50;;;14.70;99.90;;;;;;5010834;28;20053;-68
2022/10/22 02:46:18;;;;;;;0.70;0.52;;;14.70;99.90;;;;;;5009733;28;20042;-68
2022/10/22 02:48:44;;;;;;;1.52;0.60;;;14.70;99.90;;;;;;5009684;28;20029;-69
2022/10/22 02:51:10;;;;;;;0.65;0.30;;;14.70;99.90;;;;;;5010972;28;20036;-68
2022/10/22 02:53:36;;;;;;;0.95;0.75;;;14.60;99.90;;;;;;5010635;28;20121;-68
2022/10/22 02:56:01;;;;;;;3.55;2.15;;;14.60;99.90;;;;;;5011177;28;20116;-68
2022/10/22 02:58:27;;;;;;;0.63;0.40;;;14.60;99.90;;;;;;5011062;28;20073;-69
2022/10/22 03:00:53;;;;;;;0.20;0.20;;;14.60;99.90;;;;;;5026185;28;20037;-68
2022/10/22 03:03:18;;;;;;;0.73;0.43;;;14.60;99.90;;;;;;5021061;28;20078;-68
2022/10/22 03:05:44;;;;;;;1.73;0.60;;;14.60;99.90;;;;;;5026794;28;20116;-69
2022/10/22 03:08:10;;;;;;;2.25;0.52;;;14.60;99.90;;;;;;5013042;28;20057;-68
2022/10/22 03:10:35;;;;;;;0.70;0.30;;;14.60;99.90;;;;;;5011012;28;20034;-68
2022/10/22 03:13:01;;;;;;;0.22;0.20;;;14.60;99.90;;;;;;5010429;28;20315;-69
2022/10/22 03:15:27;;;;;;;1.95;0.63;;;14.60;99.90;;;;;;5019051;28;20029;-69
2022/10/22 03:17:52;;;;;;;0.65;0.40;;;14.60;99.90;;;;;;5030452;28;20076;-68
2022/10/22 03:20:18;;;;;;;6.65;0.60;;;14.50;99.90;;;;;;5018477;28;20026;-69
2022/10/22 03:22:44;;;;;;;0.35;0.28;;;14.50;99.90;;;;;;5010633;28;20065;-69
2022/10/22 03:25:18;;;;;;;0.75;0.38;;;14.50;99.90;;;;;;5009325;28;20436;-69
2022/10/22 03:27:45;;;;;;;6.88;1.10;;;14.50;99.90;;;;;;5010630;28;20117;-69
2022/10/22 03:30:12;;;;;;;2.50;0.47;;;14.50;99.90;;;;;;5009422;28;20053;-69
2022/10/22 03:32:38;;;;;;;3.78;0.38;;;14.50;99.90;;;;;;5010021;28;20044;-69
2022/10/22 03:35:05;;;;;;;0.50;0.30;;;14.50;99.90;;;;;;5009303;28;20026;-69
2022/10/22 03:37:32;;;;;;;0.50;0.40;;;14.40;99.90;;;;;;5022294;28;20057;-69
2022/10/22 03:39:57;;;;;;;0.80;0.40;;;14.40;99.90;;;;;;5028801;28;20516;-69
2022/10/22 03:42:23;;;;;;;1.45;0.65;;;14.40;99.90;;;;;;5030079;28;20078;-69
2022/10/22 03:44:50;;;;;;;0.57;0.28;;;14.50;99.90;;;;;;5030251;28;20094;-69
2022/10/22 03:47:16;;;;;;;1.65;0.73;;;14.50;99.90;;;;;;5028912;28;20025;-68
2022/10/22 03:49:41;;;;;;;1.35;0.50;;;14.50;99.90;;;;;;5030488;28;20036;-68
2022/10/22 03:52:10;;;;;;;0.93;0.30;;;14.40;99.90;;;;;;5030173;28;20029;-68
2022/10/22 03:54:37;;;;;;;1.13;0.55;;;14.50;99.90;;;;;;5028771;28;20034;-69
2022/10/22 03:57:04;;;;;;;1.50;0.60;;;14.40;99.90;;;;;;5029311;28;20034;-68
2022/10/22 03:59:39;;;;;;;1.63;0.85;;;14.60;99.90;;;;;;5033610;28;20022;-68
2022/10/22 04:02:06;;;;;;;2.53;1.08;;;14.50;99.90;;;;;;5032258;28;20110;-69
2022/10/22 04:04:31;;;;;;;0.73;0.40;;;14.40;99.90;;;;;;5033199;28;20037;-68
2022/10/22 04:06:57;;;;;;;0.75;0.50;;;14.30;99.90;;;;;;5032351;28;20026;-68
2022/10/22 04:09:23;;;;;;;1.40;0.77;;;14.30;99.90;;;;;;5033332;28;20111;-68
2022/10/22 04:11:49;;;;;;;4.82;0.60;;;14.30;99.90;;;;;;5028666;28;20025;-68
2022/10/22 04:14:14;;;;;;;0.68;0.47;;;14.30;99.90;;;;;;5013279;28;20030;-68
2022/10/22 04:16:41;;;;;;;0.20;0.20;;;14.30;99.90;;;;;;5013630;28;20038;-68
2022/10/22 04:19:07;;;;;;;1.15;0.45;;;14.30;99.90;;;;;;5012269;28;20486;-69
2022/10/22 04:21:33;;;;;;;0.43;0.35;;;14.30;99.90;;;;;;5013460;28;20044;-69
2022/10/22 04:23:59;;;;;;;3.47;0.70;;;14.20;99.90;;;;;;5012894;28;20398;-69
2022/10/22 04:26:25;;;;;;;1.08;0.28;;;14.20;99.90;;;;;;5013400;28;20030;-69
2022/10/22 04:28:51;;;;;;;0.52;0.32;;;14.20;99.90;;;;;;5013380;28;20037;-69
2022/10/22 04:31:21;;;;;;;0.82;0.30;;;14.20;99.90;;;;;;5012090;28;20033;-69
2022/10/22 04:33:55;;;;;;;2.50;0.30;;;14.20;99.90;;;;;;5011444;28;20382;-69
2022/10/22 04:36:23;;;;;;;0.65;0.20;;;14.20;99.90;;;;;;5013489;28;20490;-68
2022/10/22 04:38:58;;;;;;;0.10;0.10;;;14.30;99.90;;;;;;5012087;28;20038;-69
2022/10/22 04:41:31;;;;;;;0.25;0.20;;;14.30;99.90;;;;;;5011970;28;20049;-70
2022/10/22 04:43:57;;;;;;;1.20;0.35;;;14.20;99.90;;;;;;5011593;28;20065;-68
2022/10/22 04:46:27;;;;;;;0.10;0.10;;;14.30;99.90;;;;;;5012823;28;20034;-69
2022/10/22 04:48:54;;;;;;;0.47;0.17;;;14.30;99.90;;;;;;5013006;28;20444;-69
2022/10/22 04:51:22;;;;;;;4.30;0.15;;;14.40;99.90;;;;;;5013063;28;20091;-69
2022/10/22 04:53:49;;;;;;;0.10;0.10;;;14.40;99.90;;;;;;5011487;28;20033;-69
2022/10/22 04:56:24;;;;;;;0.38;0.17;;;14.40;99.90;;;;;;5011313;28;20676;-69
2022/10/22 04:58:56;;;;;;;0.47;0.30;;;14.40;99.90;;;;;;5012911;28;20037;-69
2022/10/22 05:01:37;;;;;;;0.52;0.30;;;14.40;99.90;;;;;;5012811;28;20120;-69
2022/10/22 05:04:04;;;;;;;;;;;14.40;99.90;;;;;;5011667;28;20029;-69
2022/10/22 05:06:33;;;;;;;8.80;0.68;;;14.40;99.90;;;;;;5012478;28;19917;-69
2022/10/22 05:09:03;;;;;;;0.25;0.10;;;14.30;99.90;;;;;;5010133;28;20083;-69
2022/10/22 05:11:33;;;;;;;1.13;0.43;;;14.40;99.90;;;;;;5011236;28;20030;-69
2022/10/22 05:14:02;;;;;;;5.00;0.20;;;14.40;99.90;;;;;;5012012;28;20340;-69
2022/10/22 05:16:29;;;;;;;1.45;0.52;;;14.30;99.90;;;;;;5011164;28;20568;-69
2022/10/22 05:18:57;;;;;;;0.45;0.30;;;14.30;99.90;;;;;;5011154;28;20389;-69
2022/10/22 05:21:23;;;;;;;0.40;0.30;;;14.30;99.90;;;;;;5012430;28;20041;-69
2022/10/22 05:23:49;;;;;;;1.25;0.65;;;14.20;99.90;;;;;;5012214;28;20030;-70
2022/10/22 05:26:19;;;;;;;1.17;0.50;;;14.20;99.90;;;;;;4995001;28;20058;-69
2022/10/22 05:28:47;;;;;;;2.10;1.05;;;14.20;99.90;;;;;;5012112;28;20057;-69
2022/10/22 05:31:14;;;;;;;0.10;0.10;;;14.20;99.90;;;;;;5012318;28;20026;-69
2022/10/22 05:33:41;;;;;;;0.82;0.52;;;14.10;99.90;;;;;;5009907;28;20100;-69
2022/10/22 05:36:11;;;;;;;1.05;0.90;;;14.00;99.90;;;;;;5019635;28;20040;-69
2022/10/22 05:38:37;;;;;;;2.55;0.73;;;13.90;99.90;;;;;;5003313;28;20401;-69
2022/10/22 05:41:06;;;;;;;5.10;1.10;;;13.70;99.90;;;;;;5021471;28;20022;-68
2022/10/22 05:43:33;;;;;;;1.35;0.55;;;13.60;99.90;;;;;;5019966;28;20037;-69
2022/10/22 05:46:11;;;;;;;0.63;0.40;;;13.60;99.90;;;;;;5021656;28;20025;-74
2022/10/22 05:48:37;;;;;;;1.33;0.70;;;13.60;99.90;;;;;;5020798;28;20046;-70
2022/10/22 05:51:10;;;;;;;1.40;0.77;;;13.40;99.90;;;;;;5027090;28;20397;-71
2022/10/22 05:53:39;;;;;;;1.20;0.52;;;13.40;99.90;;;;;;5030023;28;20033;-70
2022/10/22 05:56:11;;;;;;;4.70;0.98;;;13.40;99.90;;;;;;5029836;28;20564;-70
2022/10/22 05:58:37;;;;;;;1.30;0.60;;;13.50;99.90;;;;;;5030413;28;20056;-70
2022/10/22 06:01:07;;;;;;;0.95;0.43;;;13.50;99.90;;;;;;5031493;28;20433;-72
2022/10/22 06:03:32;;;;;;;2.40;0.50;;;13.50;99.90;;;;;;5011414;28;20124;-72
2022/10/22 06:06:25;;;;;;;0.55;0.45;;;13.50;99.90;;;;;;5010266;28;20105;-73
2022/10/22 06:08:52;;;;;;;1.85;0.40;;;13.50;99.90;;;;;;5010224;28;20486;-72
2022/10/22 06:11:22;;;;;;;1.17;0.50;;;13.50;99.90;;;;;;5016835;28;20040;-72
2022/10/22 06:13:49;;;;;;;2.58;0.93;;;13.50;99.90;;;;;;5010039;28;20052;-74
2022/10/22 06:16:15;;;;;;;0.80;0.57;;;13.50;99.90;;;;;;5011571;28;20036;-73
2022/10/22 06:18:41;;;;;;;2.72;0.50;;;13.50;99.90;;;;;;5011326;28;20029;-73
2022/10/22 06:21:09;;;;;;;0.75;0.45;;;13.60;99.90;;;;;;5010976;28;20128;-73
2022/10/22 06:23:36;;;;;;;0.47;0.30;;;13.60;99.90;;;;;;5009677;28;20065;-72
2022/10/22 06:26:03;;;;;;;2.25;0.85;;;13.60;99.90;;;;;;5010979;28;20180;-70
2022/10/22 06:28:30;;;;;;;1.92;1.25;;;13.60;99.90;;;;;;5009759;28;20084;-71
2022/10/22 06:31:00;;;;;;;0.47;0.43;;;13.70;99.90;;;;;;5011322;28;20061;-70
2022/10/22 06:33:28;;;;;;;0.68;0.40;;;13.70;99.90;;;;;;5009449;28;20555;-70
2022/10/22 06:35:54;;;;;;;1.55;0.88;;;13.70;99.90;;;;;;5011248;28;20030;-69
2022/10/22 06:38:20;;;;;;;1.23;0.73;;;13.70;99.90;;;;;;5011074;28;20041;-51
2022/10/22 06:40:46;;;;;;;1.98;0.88;;;13.70;99.90;;;;;;5009747;28;20041;-50
2022/10/22 06:43:13;;;;;;;1.58;0.82;;;13.70;99.90;;;;;;5010634;28;20033;-51
2022/10/22 06:45:39;;;;;;;3.33;1.65;;;13.70;99.90;;;;;;5009672;28;20041;-52
2022/10/22 06:48:06;;;;;;;1.15;0.52;;;13.70;99.90;;;;;;5010762;28;20030;-70
2022/10/22 06:50:33;;;;;;;1.17;0.60;;;13.70;99.90;;;;;;5012529;28;20512;-71
2022/10/22 06:52:59;;;;;;;6.38;0.77;;;13.70;99.90;;;;;;5025809;28;20033;-69
2022/10/22 06:55:25;;;;;;;0.50;0.40;;;13.60;99.90;;;;;;5011682;28;20367;-70
2022/10/22 06:57:50;;;;;;;0.30;0.30;;;13.70;99.90;;;;;;5010242;28;20030;-72
2022/10/22 07:00:16;;;;;;;0.57;0.47;;;13.70;99.90;;;;;;5016872;28;20041;-70
2022/10/22 07:02:42;;;;;;;2.58;0.80;;;13.70;99.90;;;;;;5040924;28;20033;-70
2022/10/22 07:05:08;;;;;;;0.68;0.50;;;13.70;99.90;;;;;;5018687;28;21412;-70
2022/10/22 07:07:34;;;;;;;0.68;0.35;;;13.70;99.90;;;;;;5028992;28;20030;-74
2022/10/22 07:09:59;;;;;;;0.68;0.55;;;13.80;99.90;;;;;;5030420;28;20026;-69
2022/10/22 07:12:25;;;;;;;0.77;0.57;;;13.90;99.90;;;;;;5010386;28;20053;-71
2022/10/22 07:14:51;;;;;;;1.30;0.95;;;13.90;99.90;;;;;;5010488;28;20025;-70
2022/10/22 07:17:16;;;;;;;6.55;0.93;;;14.00;99.90;;;;;;5010678;28;20363;-71
2022/10/22 07:19:42;;;;;;;0.98;0.55;;;14.10;99.90;;;;;;5011224;28;20029;-71
2022/10/22 07:22:08;;;;;;;2.42;0.80;;;14.10;99.90;;;;;;5010343;28;20044;-70
2022/10/22 07:24:33;;;;;;;0.57;0.50;;;14.20;99.90;;;;;;5010239;28;20505;-70
2022/10/22 07:26:59;;;;;;;1.45;0.82;;;14.20;99.90;;;;;;5010220;28;20088;-69
2022/10/22 07:29:25;;;;;;;0.40;0.40;;;14.30;99.90;;;;;;5010485;28;20030;-71
2022/10/22 07:31:51;;;;;;;3.63;1.27;;;14.40;99.90;;;;;;5010383;28;20124;-71
2022/10/22 07:34:16;;;;;;;1.40;0.75;;;14.60;99.90;;;;;;5014093;28;20084;-65
2022/10/22 07:36:42;;;;;;;1.13;0.50;;;14.60;99.90;;;;;;5014286;28;20044;-55
2022/10/22 07:39:08;;;;;;;1.33;0.68;;;14.60;99.90;;;;;;5014106;28;20052;-54
2022/10/22 07:41:33;;;;;;;0.95;0.52;;;14.70;99.90;;;;;;5013843;28;20037;-58
2022/10/22 07:43:59;;;;;;;0.70;0.40;;;14.70;99.90;;;;;;5013567;28;20038;-57
2022/10/22 07:46:26;;;;;;;0.90;0.47;;;14.80;99.90;;;;;;5014189;28;20041;-58
2022/10/22 07:48:53;;;;;;;2.45;0.70;;;14.90;99.90;;;;;;5012471;28;20045;-56
2022/10/22 07:51:18;;;;;;;0.43;0.30;;;14.80;99.90;;;;;;5012719;28;20052;-57
2022/10/22 07:53:44;;;;;;;2.38;0.70;;;14.90;99.90;;;;;;5013394;28;20037;-58
2022/10/22 07:56:10;;;;;;;0.95;0.40;;;14.90;99.90;;;;;;5012839;28;20025;-57
2022/10/22 07:58:36;;;;;;;0.52;0.35;;;14.90;99.90;;;;;;5013447;28;20798;-58
2022/10/22 08:01:04;;;;;;;0.77;0.73;;;14.90;99.90;;;;;;5013744;28;20033;-58
2022/10/22 08:03:31;;;;;;;1.48;0.60;;;15.00;99.90;;;;;;5013514;28;20026;-54
2022/10/22 08:05:57;;;;;;;4.93;0.55;;;15.10;99.90;;;;;;5013577;28;20045;-59
2022/10/22 08:08:23;;;;;;;0.55;0.30;;;15.10;99.90;;;;;;5013539;28;20041;-59
2022/10/22 08:10:52;;;;;;;1.00;0.65;;;15.20;99.90;;;;;;5019738;28;20040;-53
2022/10/22 08:13:18;;;;;;;1.23;0.63;;;15.20;99.90;;;;;;5031699;28;20493;-58
2022/10/22 08:15:45;;;;;;;1.42;0.77;;;15.20;99.90;;;;;;5033478;28;20026;-71
2022/10/22 08:18:11;;;;;;;0.65;0.40;;;15.30;99.90;;;;;;5033318;28;20040;-71
2022/10/22 08:20:37;;;;;;;0.63;0.35;;;15.30;99.90;;;;;;5033503;28;20033;-73
2022/10/22 08:23:04;;;;;;;1.63;0.40;;;15.40;99.90;;;;;;5032659;28;20029;-70
2022/10/22 08:25:30;;;;;;;4.03;0.88;;;15.40;99.90;;;;;;5027665;28;20105;-69
2022/10/22 08:27:56;;;;;;;0.80;0.45;;;15.50;99.90;;;;;;5012818;28;20111;-70
2022/10/22 08:30:21;;;;;;;1.75;0.73;;;15.60;99.90;;;;;;5030420;28;20033;-70
2022/10/22 08:32:47;;;;;;;2.03;0.93;;;15.70;99.90;;;;;;5029042;28;20519;-70
2022/10/22 08:35:13;;;;;;;2.10;1.05;;;15.90;99.90;;;;;;5032991;28;20052;-70
2022/10/22 08:37:39;;;;;;;1.10;0.43;;;15.90;99.90;;;;;;5026395;28;20030;-69
2022/10/22 08:40:06;;;;;;;6.25;3.25;;;16.00;99.90;;;;;;5017253;28;20038;-70
2022/10/22 08:43:17;;;;;;;3.45;0.70;;;16.00;99.90;;;;;;5021198;28;20029;-70
2022/10/22 08:46:11;;;;;;;2.80;1.02;;;16.00;99.90;;;;;;5020978;28;20044;-70
2022/10/22 08:48:54;;;;;;;1.48;0.77;;;16.10;99.90;;;;;;5012768;28;20536;-70
2022/10/22 08:51:29;;;;;;;1.45;0.80;;;16.10;99.90;;;;;;4994808;28;20386;-70
2022/10/22 08:54:23;;;;;;;1.02;0.40;;;16.20;99.90;;;;;;5009271;28;20627;-70
2022/10/22 08:57:08;;;;;;;1.13;0.40;;;16.30;99.90;;;;;;5010342;28;20022;-71
2022/10/22 08:59:46;;;;;;;1.08;0.20;;;16.40;99.90;;;;;;5023698;28;20030;-72
2022/10/22 09:03:02;;;;;;;0.65;0.38;;;16.30;99.90;;;;;;5030413;28;20037;-73
2022/10/22 09:05:57;;;;;;;6.50;0.75;;;16.50;99.90;;;;;;5015044;28;20563;-73
2022/10/22 09:08:23;;;;;;;0.43;0.30;;;16.40;99.90;;;;;;5031276;28;20117;-72
2022/10/22 09:11:05;;;;;;;2.67;0.40;;;16.60;99.90;;;;;;5025877;28;20032;-51
2022/10/22 09:13:31;;;;;;;0.50;0.43;;;16.60;99.90;;;;;;5011072;28;20033;-52
2022/10/22 09:16:29;;;;;;;0.52;0.22;;;16.70;99.90;;;;;;5021198;28;20025;-49
2022/10/22 09:19:22;;;;;;;0.40;0.30;;;16.90;99.90;;;;;;5000855;28;20079;-53
2022/10/22 09:22:14;;;;;;;0.85;0.55;;;17.00;99.90;;;;;;5030787;28;20091;-51
2022/10/22 09:24:46;;;;;;;1.70;0.45;;;17.00;99.90;;;;;;5020669;28;20663;-46
2022/10/22 09:27:28;;;;;;;0.38;0.28;;;17.20;99.90;;;;;;5031981;28;20046;-50
2022/10/22 09:29:54;;;;;;;0.95;0.30;;;17.40;99.90;;;;;;5030795;28;20017;-46
2022/10/22 09:32:20;;;;;;;2.13;0.35;;;17.70;99.90;;;;;;5031252;28;20040;-50
2022/10/22 09:34:48;;;;;;;4.10;1.25;;;17.70;99.90;;;;;;5031850;28;20067;-49
2022/10/22 09:37:18;;;;;;;0.93;0.40;;;17.90;99.90;;;;;;5031632;28;20116;-50
2022/10/22 09:39:49;;;;;;;0.70;0.20;;;17.90;99.90;;;;;;5030500;28;20034;-50
2022/10/22 09:42:17;;;;;;;2.00;0.60;;;18.10;99.90;;;;;;5030275;28;20109;-44
2022/10/22 09:44:50;;;;;;;1.05;0.20;;;18.00;99.90;;;;;;5031586;28;20038;-47
2022/10/22 09:47:40;;;;;;;0.35;0.30;;;18.10;99.90;;;;;;5030473;28;20030;-49
2022/10/22 09:50:28;;;;;;;1.35;0.20;;;18.20;99.90;;;;;;5030161;28;20030;-47
2022/10/22 09:53:17;;;;;;;0.17;0.17;;;18.40;99.90;;;;;;5030239;28;20034;-48
2022/10/22 09:55:47;;;;;;;0.82;0.45;;;18.30;99.90;;;;;;5029715;28;20030;-46
2022/10/22 09:58:13;;;;;;;0.52;0.10;;;18.80;99.90;;;;;;5031304;28;20033;-50
2022/10/22 10:00:44;;;;;;;0.30;0.20;;;19.10;99.90;;;;;;5031213;28;20057;-52
2022/10/22 10:03:28;;;;;;;0.10;0.10;;;19.40;99.90;;;;;;5029788;28;20040;-49
2022/10/22 10:05:58;;;;;;;0.17;0.17;;;19.10;99.90;;;;;;5030056;28;20485;-48
2022/10/22 10:08:24;;;;;;;0.95;0.35;;;19.40;99.90;;;;;;5031150;28;20045;-49
2022/10/22 10:10:58;;;;;;;2.35;0.47;;;19.80;99.90;;;;;;5024618;28;20022;-50
2022/10/22 10:13:51;;;;;;;0.45;0.20;;;20.00;99.90;;;;;;5010241;28;20117;-47
2022/10/22 10:17:09;;;;;;;4.00;2.08;;;19.50;99.90;;;;;;5010310;28;20080;-43
2022/10/22 10:19:47;;;;;;;2.53;0.60;;;19.50;99.90;;;;;;5007270;28;20044;-48
2022/10/22 10:22:19;;;;;;;6.40;2.38;;;20.10;99.90;;;;;;5029748;28;20029;-45
2022/10/22 10:25:05;;;;;;;3.63;0.98;;;19.90;99.90;;;;;;5031162;28;20038;-51
2022/10/22 10:28:02;;;;;;;2.30;0.73;;;20.00;99.90;;;;;;5030750;28;20044;-52
2022/10/22 10:30:29;;;;;;;0.60;0.40;;;20.20;99.90;;;;;;5010053;28;20030;-50
2022/10/22 10:33:17;;;;;;;0.65;0.25;;;20.20;99.90;;;;;;5010709;28;20034;-50
2022/10/22 10:36:39;;;;;;;0.85;0.65;;;21.00;99.90;;;;;;4993864;28;20022;-51
2022/10/22 10:39:18;;;;;;;0.38;0.38;;;21.30;99.90;;;;;;5010396;28;20046;-48
2022/10/22 10:42:28;;;;;;;5.57;0.30;;;21.20;99.90;;;;;;4994324;28;20398;-50
2022/10/22 10:45:19;;;;;;;0.23;0.20;;;21.20;99.90;;;;;;4931282;29;20047;-50
2022/10/22 10:48:05;;;;;;;0.13;0.13;;;23.00;99.90;;;;;;5007836;28;20042;-49
2022/10/22 10:51:23;;;;;;;0.30;0.20;;;22.80;99.90;;;;;;5009806;28;20045;-48
2022/10/22 10:54:34;;;;;;;1.50;0.65;;;23.10;99.90;;;;;;5010752;28;20074;-53
2022/10/22 10:57:12;;;;;;;5.57;0.45;;;24.40;99.90;;;;;;5010913;28;20549;-52
2022/10/22 10:59:49;;;;;;;0.20;0.20;;;23.90;99.90;;;;;;5018362;28;20434;-52
2022/10/22 11:02:44;;;;;;;3.90;0.38;;;24.10;99.90;;;;;;5030508;28;20108;-49
2022/10/22 11:05:40;;;;;;;0.55;0.20;;;22.80;99.90;;;;;;5029211;28;20064;-46
2022/10/22 11:08:40;;;;;;;0.50;0.28;;;22.20;99.90;;;;;;5034494;28;20061;-50
2022/10/22 11:11:29;;;;;;;0.32;0.20;;;23.90;99.90;;;;;;5028502;28;20505;-52
2022/10/22 11:14:20;;;;;;;0.73;0.40;;;25.10;99.50;;;;;;5013093;28;20057;-50
2022/10/22 11:16:54;;;;;;;0.38;0.30;;;23.80;99.90;;;;;;5013393;28;20377;-50
2022/10/22 11:19:57;;;;;;;0.30;0.13;;;23.00;99.90;;;;;;5014321;28;20096;-49
2022/10/22 11:22:48;;;;;;;0.40;0.20;;;23.90;99.90;;;;;;5020100;28;20048;-47
2022/10/22 11:25:43;;;;;;;3.35;1.52;;;23.30;99.90;;;;;;5033078;28;20124;-52
2022/10/22 11:28:26;;;;;;;2.72;0.77;;;24.50;99.90;;;;;;5034042;28;20037;-52
2022/10/22 11:31:09;;;;;;;0.73;0.30;;;25.90;98.80;;;;;;5032831;28;20104;-48
2022/10/22 11:34:06;;;;;;;0.60;0.30;;;24.60;99.60;;;;;;5032384;28;20029;-50
2022/10/22 11:36:34;;;;;;;0.82;0.50;;;24.10;99.90;;;;;;5032625;28;20560;-51
2022/10/22 11:39:03;;;;;;;0.38;0.25;;;25.80;98.00;;;;;;5033997;28;20036;-49
2022/10/22 11:41:31;;;;;;;0.30;0.20;;;24.80;99.30;;;;;;5016258;28;20029;-53
2022/10/22 11:44:24;;;;;;;0.28;0.20;;;25.20;99.20;;;;;;5032128;28;20048;-49
2022/10/22 11:47:18;;;;;;;2.90;0.50;;;24.10;99.90;;;;;;5032742;28;20068;-51
2022/10/22 11:49:55;;;;;;;0.82;0.45;;;23.40;99.90;;;;;;5032460;28;20065;-48
2022/10/22 11:52:30;;;;;;;3.05;0.40;;;23.30;99.90;;;;;;5032170;28;20041;-48
2022/10/22 11:55:00;;;;;;;0.43;0.20;;;24.10;99.90;;;;;;5033354;28;20029;-45
2022/10/22 11:57:37;;;;;;;0.45;0.40;;;24.20;99.90;;;;;;5032669;28;20370;-55
2022/10/22 12:00:30;;;;;;;1.00;0.40;;;22.70;99.90;;;;;;5033529;28;20041;-52
2022/10/22 12:03:31;;;;;;;0.45;0.22;;;22.40;99.90;;;;;;5032183;28;20033;-55
2022/10/22 12:06:12;;;;;;;0.95;0.45;;;21.50;99.90;;;;;;5033214;28;20123;-53
2022/10/22 12:08:49;;;;;;;0.25;0.20;;;20.70;99.90;;;;;;5033423;28;20041;-53
2022/10/22 12:11:40;;;;;;;3.20;0.85;;;20.30;99.90;;;;;;5023440;28;20523;-49
2022/10/22 12:14:47;;;;;;;1.63;0.73;;;20.50;99.90;;;;;;5011603;28;20513;-54
2022/10/22 12:17:15;;;;;;;1.13;0.52;;;20.70;99.90;;;;;;5004710;28;20144;-52
2022/10/22 12:19:53;;;;;;;4.55;0.70;;;21.10;99.90;;;;;;5011619;28;20080;-47
2022/10/22 12:22:32;;;;;;;3.22;0.50;;;20.70;99.90;;;;;;5011574;28;20059;-54
2022/10/22 12:25:15;;;;;;;0.77;0.40;;;20.50;99.90;;;;;;5012150;28;20022;-47
2022/10/22 12:27:41;;;;;;;3.92;1.35;;;20.20;99.90;;;;;;5011820;28;20038;-53
2022/10/22 12:30:30;;;;;;;0.43;0.40;;;20.20;99.90;;;;;;5013180;28;20030;-52
2022/10/22 12:33:01;;;;;;;1.13;0.80;;;20.20;99.90;;;;;;5016767;28;20049;-54
2022/10/22 12:35:48;;;;;;;;;;;20.60;99.90;;;;;;5041278;28;20047;-53
2022/10/22 12:38:22;;;;;;;0.47;0.40;;;20.70;99.90;;;;;;5023862;28;20381;-53
2022/10/22 12:40:50;;;;;;;0.65;0.43;;;20.60;99.90;;;;;;5025390;28;20438;-52
2022/10/22 12:43:23;;;;;;;4.80;1.33;;;21.20;99.90;;;;;;5021988;28;20555;-55
2022/10/22 12:45:51;;;;;;;0.70;0.32;;;21.40;99.90;;;;;;5020723;28;20030;-49
2022/10/22 12:48:22;;;;;;;6.82;0.77;;;21.40;99.90;;;;;;5010647;28;20048;-53
2022/10/22 12:50:55;;;;;;;1.00;0.45;;;21.50;99.90;;;;;;5025454;28;20037;-54
2022/10/22 12:53:38;;;;;;;0.73;0.35;;;21.70;99.90;;;;;;5010657;28;20448;-52
2022/10/22 12:56:14;;;;;;;1.27;0.60;;;21.00;99.90;;;;;;5010877;28;20080;-52
2022/10/22 12:59:01;;;;;;;1.35;0.40;;;22.00;99.90;;;;;;5011049;28;20041;-50
2022/10/22 13:01:35;;;;;;;2.80;0.40;;;22.20;99.90;;;;;;5011827;28;20037;-52
2022/10/22 13:04:32;;;;;;;4.68;0.45;;;23.20;99.90;;;;;;5010567;28;20044;-53
2022/10/22 13:07:15;;;;;;;8.80;0.30;;;23.80;99.90;;;;;;5026092;28;20041;-55
2022/10/22 13:09:54;;;;;;;1.95;0.20;;;24.30;99.90;;;;;;5051550;28;20501;-52
2022/10/22 13:12:34;;;;;;;1.02;0.73;;;24.80;99.90;;;;;;5032410;28;20064;-51
2022/10/22 13:15:18;;;;;;;1.67;0.85;;;24.40;99.90;;;;;;5030618;28;20033;-52
2022/10/22 13:17:46;;;;;;;4.63;0.60;;;23.70;99.90;;;;;;5030133;28;20044;-55
2022/10/22 13:20:22;;;;;;;0.90;0.50;;;23.50;99.90;;;;;;5031509;28;20084;-53
2022/10/22 13:23:00;;;;;;;0.55;0.20;;;23.50;99.90;;;;;;5020703;28;20022;-75